Time;durP1;ratioP1;P1;durP2;ratioP2;P2;SDS_P1;SDS_P2;PMS_P1;PMS_P2;Temp;Humidity;BMP_temperature;BMP_pressure;BME280_temperature;BME280_humidity;BME280_pressure;Samples;Min_cycle;Max_cycle;Signal;HPM_P1;HPM_P2
2022/04/11 00:02:16;;;;;;;14.73;4.50;;;21.30;49.00;;;;;;4954418;28;20037;-76
2022/04/11 00:04:42;;;;;;;11.43;4.13;;;21.30;49.00;;;;;;4954676;28;20118;-76
2022/04/11 00:07:08;;;;;;;12.77;4.25;;;21.30;49.00;;;;;;4953293;29;20399;-76
2022/04/11 00:09:34;;;;;;;12.02;4.20;;;21.30;49.10;;;;;;4954659;28;20111;-76
2022/04/11 00:12:00;;;;;;;10.95;4.45;;;21.30;49.10;;;;;;4954640;28;20115;-76
2022/04/11 00:14:26;;;;;;;12.02;4.53;;;21.30;49.00;;;;;;4954498;28;20062;-76
2022/04/11 00:16:51;;;;;;;13.55;4.40;;;21.30;49.00;;;;;;4954270;28;20062;-76
2022/04/11 00:19:17;;;;;;;9.95;4.05;;;21.30;49.10;;;;;;4954186;28;20042;-76
2022/04/11 00:21:43;;;;;;;14.68;4.78;;;21.30;49.10;;;;;;4969506;28;20074;-76
2022/04/11 00:24:09;;;;;;;10.82;4.00;;;21.30;49.00;;;;;;4954490;28;20035;-76
2022/04/11 00:26:35;;;;;;;14.40;5.00;;;21.30;49.00;;;;;;4953240;29;20079;-76
2022/04/11 00:29:00;;;;;;;13.07;4.35;;;21.30;49.20;;;;;;4952792;29;20451;-76
2022/04/11 00:31:26;;;;;;;10.20;4.05;;;21.30;49.10;;;;;;4953168;29;20594;-76
2022/04/11 00:33:52;;;;;;;11.73;4.60;;;21.30;49.00;;;;;;4952791;29;20027;-76
2022/04/11 00:36:18;;;;;;;9.60;4.60;;;21.30;49.00;;;;;;4969131;28;20037;-76
2022/04/11 00:38:44;;;;;;;12.02;4.65;;;21.30;49.00;;;;;;4954016;28;20038;-77
2022/04/11 00:41:10;;;;;;;12.98;4.60;;;21.30;49.00;;;;;;4953194;29;20479;-77
2022/04/11 00:43:37;;;;;;;7.97;3.85;;;21.30;49.10;;;;;;4953160;29;20110;-75
2022/04/11 00:46:05;;;;;;;11.45;4.55;;;21.30;49.00;;;;;;4953265;28;20039;-75
2022/04/11 00:48:33;;;;;;;8.65;4.50;;;21.30;49.00;;;;;;4953112;28;20447;-75
2022/04/11 00:51:26;;;;;;;11.52;4.30;;;21.30;49.00;;;;;;4936780;29;20038;-75
2022/04/11 00:53:54;;;;;;;12.23;4.25;;;21.30;49.10;;;;;;4967183;28;20649;-76
2022/04/11 00:56:20;;;;;;;9.98;4.18;;;21.30;49.00;;;;;;4953044;29;20086;-77
2022/04/11 00:58:47;;;;;;;11.93;4.50;;;21.30;49.10;;;;;;4952563;29;20031;-76
2022/04/11 01:01:15;;;;;;;12.40;4.25;;;21.30;48.90;;;;;;4953950;28;20027;-76
2022/04/11 01:03:41;;;;;;;11.75;4.28;;;21.30;48.90;;;;;;4952411;29;20034;-76
2022/04/11 01:06:07;;;;;;;10.00;4.45;;;21.30;49.00;;;;;;4952909;29;20082;-77
2022/04/11 01:08:34;;;;;;;10.50;4.00;;;21.30;48.90;;;;;;4951916;29;20466;-77
2022/04/11 01:11:02;;;;;;;9.70;4.43;;;21.30;49.00;;;;;;4952671;29;20055;-76
2022/04/11 01:13:29;;;;;;;8.65;4.18;;;21.30;49.00;;;;;;4936289;29;20034;-76
2022/04/11 01:15:58;;;;;;;12.63;4.70;;;21.30;49.00;;;;;;4936619;29;20054;-76
2022/04/11 01:18:24;;;;;;;7.85;4.13;;;21.30;49.00;;;;;;4948472;29;20036;-76
2022/04/11 01:20:51;;;;;;;11.13;4.78;;;21.30;49.00;;;;;;4933382;29;20039;-76
2022/04/11 01:23:17;;;;;;;10.00;3.92;;;21.30;49.00;;;;;;4940714;29;20031;-76
2022/04/11 01:25:49;;;;;;;10.00;4.72;;;21.30;49.00;;;;;;4936682;29;20024;-76
2022/04/11 01:28:15;;;;;;;9.23;4.25;;;21.30;49.00;;;;;;4952161;29;20074;-76
2022/04/11 01:30:41;;;;;;;10.10;4.40;;;21.30;49.10;;;;;;4952536;29;20039;-77
2022/04/11 01:33:36;;;;;;;10.82;4.43;;;21.30;49.00;;;;;;4952285;29;20054;-77
2022/04/11 01:36:04;;;;;;;11.18;4.50;;;21.30;48.90;;;;;;4948687;29;20039;-76
2022/04/11 01:38:30;;;;;;;9.75;4.85;;;21.30;49.00;;;;;;4932918;29;20443;-76
2022/04/11 01:40:57;;;;;;;7.70;4.10;;;21.30;49.10;;;;;;4933212;29;20439;-76
2022/04/11 01:43:24;;;;;;;9.27;4.55;;;21.30;49.00;;;;;;4934346;29;20032;-76
2022/04/11 01:45:52;;;;;;;9.52;4.55;;;21.30;49.10;;;;;;4933102;29;20107;-76
2022/04/11 01:48:29;;;;;;;8.25;4.45;;;21.30;48.90;;;;;;4932767;29;20028;-76
2022/04/11 01:50:56;;;;;;;11.90;4.60;;;21.30;49.00;;;;;;4933139;29;20039;-76
2022/04/11 01:53:22;;;;;;;10.52;4.60;;;21.30;48.90;;;;;;4932993;29;20023;-76
2022/04/11 01:55:48;;;;;;;12.18;4.53;;;21.30;49.00;;;;;;4929727;29;20051;-76
2022/04/11 01:58:15;;;;;;;9.80;4.53;;;21.30;49.10;;;;;;4951884;28;20042;-76
2022/04/11 02:00:42;;;;;;;8.65;4.25;;;21.30;48.90;;;;;;4952084;29;20035;-76
2022/04/11 02:03:10;;;;;;;10.43;4.78;;;21.30;49.10;;;;;;4952085;29;20424;-76
2022/04/11 02:05:36;;;;;;;12.10;4.70;;;21.30;49.20;;;;;;4952406;28;20038;-76
2022/04/11 02:08:04;;;;;;;9.80;5.25;;;21.30;49.00;;;;;;4951828;29;20035;-77
2022/04/11 02:10:31;;;;;;;11.60;4.90;;;21.30;48.90;;;;;;4936310;29;20032;-76
2022/04/11 02:12:58;;;;;;;8.75;4.70;;;21.30;49.40;;;;;;4947672;29;20036;-76
2022/04/11 02:15:24;;;;;;;12.25;4.63;;;21.30;49.00;;;;;;4969235;28;20499;-76
2022/04/11 02:17:50;;;;;;;10.05;4.90;;;21.30;49.10;;;;;;4954466;29;20042;-76
2022/04/11 02:20:16;;;;;;;10.25;4.80;;;21.30;48.90;;;;;;4955700;29;20502;-77
2022/04/11 02:22:44;;;;;;;12.00;4.40;;;21.30;48.90;;;;;;4939649;29;20046;-76
2022/04/11 02:25:11;;;;;;;8.75;4.20;;;21.30;48.70;;;;;;4955560;29;20037;-77
2022/04/11 02:27:37;;;;;;;8.68;4.47;;;21.30;48.90;;;;;;4954958;29;20098;-77
2022/04/11 02:30:04;;;;;;;11.48;4.55;;;21.30;49.40;;;;;;4954872;29;20491;-77
2022/04/11 02:32:30;;;;;;;14.02;4.60;;;21.30;49.30;;;;;;4939333;29;20031;-77
2022/04/11 02:34:56;;;;;;;13.02;4.55;;;21.30;49.40;;;;;;4955256;29;20538;-77
2022/04/11 02:37:22;;;;;;;10.02;4.57;;;21.30;49.50;;;;;;4955116;29;20400;-77
2022/04/11 02:39:49;;;;;;;12.48;4.13;;;21.30;48.90;;;;;;4955154;29;20031;-77
2022/04/11 02:42:22;;;;;;;12.75;4.72;;;21.30;49.10;;;;;;4955274;29;20429;-77
2022/04/11 02:44:49;;;;;;;12.63;5.35;;;21.30;49.50;;;;;;4955165;29;20039;-78
2022/04/11 02:47:15;;;;;;;11.88;4.47;;;21.30;49.50;;;;;;4954497;29;20031;-78
2022/04/11 02:49:41;;;;;;;9.50;4.50;;;21.30;49.00;;;;;;4954896;29;20035;-78
2022/04/11 02:52:29;;;;;;;9.13;4.25;;;21.30;49.30;;;;;;4941939;29;20031;-77
2022/04/11 02:54:56;;;;;;;8.43;3.88;;;21.30;49.80;;;;;;4954783;29;20032;-77
2022/04/11 02:57:23;;;;;;;9.00;4.45;;;21.30;49.50;;;;;;4954880;29;20028;-77
2022/04/11 02:59:50;;;;;;;9.13;4.20;;;21.30;49.30;;;;;;4954817;29;20563;-78
2022/04/11 03:02:16;;;;;;;10.25;4.57;;;21.20;49.20;;;;;;4954866;29;20032;-77
2022/04/11 03:04:42;;;;;;;10.10;4.35;;;21.20;49.10;;;;;;4954288;29;20038;-77
2022/04/11 03:07:13;;;;;;;14.27;4.22;;;21.30;49.00;;;;;;4954484;29;20035;-78
2022/04/11 03:09:39;;;;;;;7.57;3.83;;;21.20;49.00;;;;;;4954575;29;20035;-77
2022/04/11 03:12:06;;;;;;;9.73;4.45;;;21.30;48.90;;;;;;4954756;29;20023;-77
2022/04/11 03:14:33;;;;;;;8.75;4.20;;;21.30;49.30;;;;;;4954509;29;20050;-77
2022/04/11 03:17:00;;;;;;;8.43;3.88;;;21.20;48.90;;;;;;4954560;29;20031;-77
2022/04/11 03:19:26;;;;;;;9.95;4.60;;;21.20;48.80;;;;;;4953851;29;20086;-77
2022/04/11 03:21:52;;;;;;;9.32;4.45;;;21.20;48.90;;;;;;4954410;29;20035;-77
2022/04/11 03:24:18;;;;;;;9.23;4.15;;;21.30;49.10;;;;;;4938592;28;20042;-77
2022/04/11 03:26:45;;;;;;;11.32;4.38;;;21.20;48.90;;;;;;4954083;29;20073;-77
2022/04/11 03:29:16;;;;;;;9.13;4.25;;;21.20;49.20;;;;;;4953859;29;20031;-76
2022/04/11 03:31:42;;;;;;;9.10;4.18;;;21.20;49.60;;;;;;4954284;29;20027;-76
2022/04/11 03:34:09;;;;;;;7.97;4.00;;;21.20;48.90;;;;;;4954075;29;20037;-77
2022/04/11 03:36:36;;;;;;;9.05;4.18;;;21.20;49.10;;;;;;4954033;28;20019;-77
2022/04/11 03:39:02;;;;;;;10.23;4.07;;;21.30;49.00;;;;;;4953711;29;20531;-77
2022/04/11 03:41:31;;;;;;;9.07;4.03;;;21.20;48.90;;;;;;4954403;29;20039;-78
2022/04/11 03:44:09;;;;;;;8.13;4.35;;;21.20;48.80;;;;;;4954101;29;20027;-77
2022/04/11 03:46:37;;;;;;;9.15;4.07;;;21.30;49.00;;;;;;4954085;29;20480;-78
2022/04/11 03:49:03;;;;;;;9.77;3.78;;;21.30;49.00;;;;;;4953452;29;20035;-78
2022/04/11 03:51:29;;;;;;;7.88;3.85;;;21.30;48.80;;;;;;4953958;29;20031;-78
2022/04/11 03:53:55;;;;;;;7.93;3.90;;;21.20;48.80;;;;;;4953284;29;20113;-78
2022/04/11 03:56:22;;;;;;;11.20;4.60;;;21.30;49.10;;;;;;4953882;29;20034;-78
2022/04/11 03:58:47;;;;;;;9.43;4.05;;;21.30;48.80;;;;;;4953355;29;20120;-78
2022/04/11 04:01:14;;;;;;;10.68;3.90;;;21.30;48.90;;;;;;4953817;29;20031;-78
2022/04/11 04:03:40;;;;;;;10.60;4.53;;;21.20;48.70;;;;;;4953642;29;20385;-76
2022/04/11 04:06:10;;;;;;;11.68;4.28;;;21.20;48.70;;;;;;4953624;29;20035;-76
2022/04/11 04:08:40;;;;;;;8.82;3.78;;;21.30;48.80;;;;;;4953252;29;20030;-76
2022/04/11 04:11:17;;;;;;;9.88;4.40;;;21.30;48.70;;;;;;4953304;29;20093;-76
2022/04/11 04:14:18;;;;;;;8.43;3.85;;;21.30;48.70;;;;;;4953727;28;20046;-76
2022/04/11 04:16:49;;;;;;;9.38;4.30;;;21.30;49.10;;;;;;4953161;29;20055;-77
2022/04/11 04:19:18;;;;;;;8.02;4.20;;;21.30;48.90;;;;;;4952993;29;20045;-76
2022/04/11 04:21:45;;;;;;;10.07;4.22;;;21.30;49.20;;;;;;4953450;29;20101;-77
2022/04/11 04:24:14;;;;;;;8.60;4.28;;;21.30;48.70;;;;;;4953211;29;20035;-77
2022/04/11 04:26:39;;;;;;;9.73;4.50;;;21.30;49.30;;;;;;4954491;28;20388;-77
2022/04/11 04:29:08;;;;;;;13.02;3.88;;;21.30;49.20;;;;;;4952787;29;20062;-77
2022/04/11 04:31:39;;;;;;;9.05;4.22;;;21.30;48.60;;;;;;4922168;29;20457;-77
2022/04/11 04:34:05;;;;;;;8.90;3.90;;;21.30;48.70;;;;;;4953160;29;20038;-77
2022/04/11 04:36:31;;;;;;;9.10;4.13;;;21.30;48.70;;;;;;4952497;28;20042;-77
2022/04/11 04:39:01;;;;;;;8.00;3.95;;;21.30;48.70;;;;;;4952707;29;20087;-77
2022/04/11 04:41:29;;;;;;;9.07;4.63;;;21.30;48.80;;;;;;4953164;29;20039;-75
2022/04/11 04:43:54;;;;;;;8.68;4.15;;;21.30;48.70;;;;;;4937025;29;20035;-75
2022/04/11 04:46:21;;;;;;;8.57;3.95;;;21.30;49.30;;;;;;4936551;29;20023;-75
2022/04/11 04:48:54;;;;;;;8.27;4.28;;;21.30;49.30;;;;;;4937846;29;20043;-75
2022/04/11 04:51:22;;;;;;;7.43;3.97;;;21.30;49.00;;;;;;4953233;29;20498;-74
2022/04/11 04:53:56;;;;;;;9.65;4.00;;;21.30;48.80;;;;;;4952755;29;20034;-75
2022/04/11 04:56:23;;;;;;;9.07;4.38;;;21.30;49.20;;;;;;4937161;29;20031;-75
2022/04/11 04:58:50;;;;;;;7.80;3.90;;;21.30;49.50;;;;;;4953552;28;20035;-75
2022/04/11 05:01:16;;;;;;;8.07;3.60;;;21.30;48.70;;;;;;4952627;29;20403;-75
2022/04/11 05:03:42;;;;;;;9.18;4.20;;;21.30;48.50;;;;;;4952741;29;20491;-75
2022/04/11 05:06:11;;;;;;;8.00;3.85;;;21.30;48.70;;;;;;4952290;29;20064;-76
2022/04/11 05:08:38;;;;;;;7.53;4.22;;;21.40;49.00;;;;;;4952528;29;20054;-76
2022/04/11 05:11:05;;;;;;;8.43;4.05;;;21.30;48.80;;;;;;4952633;29;20035;-76
2022/04/11 05:13:32;;;;;;;7.70;4.20;;;21.30;49.00;;;;;;4952576;29;20038;-76
2022/04/11 05:15:58;;;;;;;10.93;3.92;;;21.40;49.30;;;;;;4952554;29;20028;-76
2022/04/11 05:18:26;;;;;;;7.25;4.20;;;21.30;49.50;;;;;;4951861;29;20023;-76
2022/04/11 05:20:54;;;;;;;9.13;4.30;;;21.30;49.10;;;;;;4949214;29;20469;-76
2022/04/11 05:23:21;;;;;;;10.10;4.22;;;21.40;49.20;;;;;;4933384;29;20120;-76
2022/04/11 05:25:47;;;;;;;7.10;4.00;;;21.30;49.30;;;;;;4933494;29;20134;-76
2022/04/11 05:28:15;;;;;;;8.30;4.20;;;21.30;49.20;;;;;;4933010;29;20047;-76
2022/04/11 05:30:48;;;;;;;10.38;4.30;;;21.30;49.30;;;;;;4933057;29;20036;-76
2022/04/11 05:33:15;;;;;;;9.25;4.07;;;21.30;49.50;;;;;;4932785;29;20485;-76
2022/04/11 05:35:41;;;;;;;9.60;3.88;;;21.30;48.90;;;;;;4937116;29;20067;-76
2022/04/11 05:38:10;;;;;;;9.85;4.28;;;21.30;49.00;;;;;;4952072;29;20051;-75
2022/04/11 05:40:38;;;;;;;9.18;4.10;;;21.30;48.60;;;;;;4952320;29;20039;-76
2022/04/11 05:43:10;;;;;;;8.55;4.43;;;21.30;48.60;;;;;;4936345;29;20035;-75
2022/04/11 05:45:36;;;;;;;8.30;4.07;;;21.30;48.70;;;;;;4952164;29;20035;-76
2022/04/11 05:48:02;;;;;;;7.97;3.50;;;21.30;48.80;;;;;;4952781;28;20031;-76
2022/04/11 05:50:28;;;;;;;7.97;4.45;;;21.30;48.70;;;;;;4955980;29;20086;-75
2022/04/11 05:52:55;;;;;;;7.82;4.07;;;21.30;48.90;;;;;;4956876;29;20439;-75
2022/04/11 05:55:21;;;;;;;7.63;4.18;;;21.30;48.50;;;;;;4956232;29;20039;-76
2022/04/11 05:57:53;;;;;;;8.48;3.88;;;21.30;49.30;;;;;;4955619;29;20031;-76
2022/04/11 06:00:23;;;;;;;7.80;4.63;;;21.30;49.10;;;;;;4956199;28;20054;-75
2022/04/11 06:02:50;;;;;;;9.65;4.20;;;21.30;49.00;;;;;;4956970;28;20027;-76
2022/04/11 06:05:17;;;;;;;9.48;4.28;;;21.30;49.60;;;;;;4955695;29;20035;-77
2022/04/11 06:07:43;;;;;;;9.65;4.25;;;21.30;48.70;;;;;;4955374;29;20070;-77
2022/04/11 06:10:09;;;;;;;6.95;3.85;;;21.30;49.50;;;;;;4932737;29;20039;-77
2022/04/11 06:12:36;;;;;;;8.73;4.22;;;21.30;49.10;;;;;;4936412;29;20031;-77
2022/04/11 06:15:04;;;;;;;8.77;4.47;;;21.40;49.50;;;;;;4936720;29;20034;-77
2022/04/11 06:17:30;;;;;;;8.77;4.30;;;21.40;49.80;;;;;;4940394;29;20020;-77
2022/04/11 06:19:58;;;;;;;7.45;3.88;;;21.40;48.90;;;;;;4941039;29;20042;-77
2022/04/11 06:22:24;;;;;;;10.15;4.20;;;21.40;49.10;;;;;;4955835;29;20468;-75
2022/04/11 06:24:58;;;;;;;7.95;4.22;;;21.40;48.90;;;;;;4955695;29;20122;-76
2022/04/11 06:27:27;;;;;;;8.40;4.22;;;21.40;49.30;;;;;;4938906;29;20039;-77
2022/04/11 06:29:58;;;;;;;10.98;4.10;;;21.40;48.70;;;;;;4955459;29;20035;-78
2022/04/11 06:32:29;;;;;;;6.85;3.92;;;21.40;48.90;;;;;;4955354;29;20031;-78
2022/04/11 06:35:10;;;;;;;10.95;4.10;;;21.40;48.90;;;;;;4952095;28;20107;-79
2022/04/11 06:38:49;;;;;;;9.32;4.47;;;21.40;49.60;;;;;;4908012;29;20028;-80
2022/04/11 06:45:54;;;;;;;8.25;4.03;;;21.40;50.70;;;;;;4942954;29;20035;-80
2022/04/11 06:48:20;;;;;;;9.98;4.43;;;21.40;50.80;;;;;;4938253;29;20452;-77
2022/04/11 06:50:46;;;;;;;8.88;3.80;;;21.40;50.60;;;;;;4955270;28;20032;-80
2022/04/11 06:53:14;;;;;;;12.05;3.88;;;21.50;50.50;;;;;;4956188;28;20023;-79
2022/04/11 06:55:40;;;;;;;19.35;5.47;;;21.40;50.80;;;;;;4955049;29;20031;-79
2022/04/11 06:58:06;;;;;;;22.05;4.93;;;21.50;52.80;;;;;;4954333;29;20024;-78
2022/04/11 07:00:31;;;;;;;32.60;7.35;;;21.50;53.60;;;;;;4953835;28;20645;-80
2022/04/11 07:02:57;;;;;;;22.60;5.43;;;21.50;54.90;;;;;;4955694;28;20035;-78
2022/04/11 07:05:23;;;;;;;23.20;5.65;;;21.50;53.90;;;;;;4955386;28;20063;-78
2022/04/11 07:07:49;;;;;;;13.88;5.13;;;21.50;54.70;;;;;;4954450;29;20034;-82
2022/04/11 07:10:14;;;;;;;24.65;5.15;;;21.50;52.70;;;;;;4955763;28;20373;-77
2022/04/11 07:12:42;;;;;;;20.60;5.80;;;21.50;52.20;;;;;;4954589;29;20130;-74
2022/04/11 07:15:09;;;;;;;17.85;3.65;;;21.50;50.30;;;;;;4954128;29;20444;-75
2022/04/11 07:17:34;;;;;;;28.40;3.75;;;21.20;44.80;;;;;;4954147;29;20027;-75
2022/04/11 07:20:01;;;;;;;11.50;3.03;;;21.10;42.10;;;;;;4955760;28;20104;-79
2022/04/11 07:22:28;;;;;;;19.27;3.63;;;20.90;42.20;;;;;;4955547;28;20035;-83
2022/04/11 07:24:53;;;;;;;22.42;4.25;;;21.00;43.40;;;;;;4953985;29;20040;-82
2022/04/11 07:27:19;;;;;;;17.10;4.07;;;21.20;45.00;;;;;;4955675;28;20027;-83
2022/04/11 07:29:45;;;;;;;18.30;4.40;;;21.30;44.90;;;;;;4955672;29;20031;-86
2022/04/11 07:32:10;;;;;;;18.88;3.88;;;21.30;45.60;;;;;;4955189;29;20098;-88
2022/04/11 07:34:36;;;;;;;12.13;3.08;;;21.40;45.60;;;;;;4954506;29;20023;-89
2022/04/11 07:37:03;;;;;;;13.93;3.97;;;21.40;44.90;;;;;;4955474;28;20046;-87
2022/04/11 07:39:29;;;;;;;13.75;3.55;;;21.50;44.50;;;;;;4954147;29;20038;-88
2022/04/11 07:41:55;;;;;;;10.88;3.28;;;21.50;44.50;;;;;;4954276;29;20427;-88
2022/04/11 07:44:21;;;;;;;18.90;3.20;;;21.50;44.50;;;;;;4954305;29;20031;-87
2022/04/11 07:46:47;;;;;;;15.38;3.30;;;21.50;45.70;;;;;;4955502;28;20069;-86
2022/04/11 07:49:13;;;;;;;12.70;3.17;;;21.50;45.20;;;;;;4954611;28;20039;-82
2022/04/11 07:51:39;;;;;;;11.73;3.40;;;21.50;45.60;;;;;;4955187;28;20024;-82
2022/04/11 07:54:04;;;;;;;18.05;3.65;;;21.60;45.40;;;;;;4954900;28;20038;-84
2022/04/11 07:56:30;;;;;;;19.13;4.00;;;21.60;45.40;;;;;;4955293;28;20433;-85
2022/04/11 07:58:56;;;;;;;21.73;3.47;;;21.60;46.10;;;;;;4954742;28;20479;-84
2022/04/11 08:01:23;;;;;;;17.92;3.08;;;21.70;47.30;;;;;;4955496;28;20038;-87
2022/04/11 08:03:49;;;;;;;16.10;3.45;;;21.60;46.50;;;;;;5035267;23;20057;-88
2022/04/11 08:06:21;;;;;;;16.92;3.03;;;21.60;46.20;;;;;;4921434;29;20031;-87
2022/04/11 08:08:47;;;;;;;16.23;3.90;;;21.60;45.80;;;;;;4903717;29;20095;-87
2022/04/11 08:11:15;;;;;;;16.65;3.25;;;21.60;45.70;;;;;;4918921;29;20028;-87
2022/04/11 08:13:42;;;;;;;11.95;3.00;;;21.60;45.70;;;;;;4933986;29;20024;-87
2022/04/11 08:16:11;;;;;;;15.55;3.08;;;21.60;45.80;;;;;;4934734;29;20495;-87
2022/04/11 08:18:37;;;;;;;12.25;2.83;;;21.60;45.80;;;;;;4935843;29;20110;-87
2022/04/11 08:21:04;;;;;;;10.32;2.70;;;21.60;45.90;;;;;;4935805;29;20500;-87
2022/04/11 08:23:30;;;;;;;13.35;2.85;;;21.60;45.90;;;;;;4935325;29;20381;-87
2022/04/11 08:25:56;;;;;;;11.43;2.95;;;21.60;45.80;;;;;;4935344;29;20028;-87
2022/04/11 08:28:22;;;;;;;11.77;2.72;;;21.60;45.80;;;;;;4934001;29;20126;-86
2022/04/11 08:30:49;;;;;;;11.15;2.55;;;21.60;45.70;;;;;;4935528;29;20063;-87
2022/04/11 08:33:15;;;;;;;8.95;2.40;;;21.70;45.70;;;;;;4934037;29;20107;-86
2022/04/11 08:35:41;;;;;;;10.20;2.33;;;21.70;46.30;;;;;;4934380;29;20059;-87
2022/04/11 08:38:07;;;;;;;10.02;2.55;;;21.70;45.80;;;;;;4935493;29;20055;-87
2022/04/11 08:40:33;;;;;;;8.23;2.38;;;21.70;45.70;;;;;;4935101;29;20083;-87
2022/04/11 08:42:59;;;;;;;10.40;2.35;;;21.70;45.60;;;;;;4935126;29;20448;-86
2022/04/11 08:45:27;;;;;;;9.52;2.38;;;21.70;45.70;;;;;;4935220;29;20398;-87
2022/04/11 08:47:56;;;;;;;7.25;2.20;;;21.70;45.60;;;;;;4934878;29;20039;-86
2022/04/11 08:50:26;;;;;;;10.30;2.08;;;21.70;45.60;;;;;;4934963;29;20070;-85
2022/04/11 08:52:53;;;;;;;;;;;21.70;45.60;;;;;;4935293;29;20020;-84
2022/04/11 08:55:19;;;;;;;7.60;2.45;;;21.70;45.60;;;;;;4948440;23;19922;-78
2022/04/11 08:57:45;;;;;;;7.85;2.22;;;21.70;45.60;;;;;;4933820;29;20020;-79
2022/04/11 09:00:20;;;;;;;9.02;2.33;;;21.70;45.70;;;;;;4933435;29;20036;-78
2022/04/11 09:02:47;;;;;;;5.90;2.25;;;21.70;45.60;;;;;;4934939;29;20035;-78
2022/04/11 09:05:22;;;;;;;7.53;2.13;;;21.70;45.90;;;;;;4922453;29;20023;-78
2022/04/11 09:07:54;;;;;;;7.55;2.28;;;21.70;45.60;;;;;;4924745;29;20031;-77
2022/04/11 09:10:28;;;;;;;7.70;2.00;;;21.70;45.60;;;;;;4941093;28;20058;-76
2022/04/11 09:12:55;;;;;;;6.53;2.60;;;21.70;45.60;;;;;;4934124;29;20066;-77
2022/04/11 09:15:25;;;;;;;8.48;2.28;;;21.70;45.60;;;;;;4940992;28;20408;-77
2022/04/11 09:17:52;;;;;;;8.40;2.00;;;21.70;45.70;;;;;;4932316;29;20039;-76
2022/04/11 09:20:21;;;;;;;8.27;2.38;;;21.70;45.70;;;;;;4933231;29;20507;-78
2022/04/11 09:22:48;;;;;;;6.07;2.25;;;21.70;45.70;;;;;;4932096;29;20458;-77
2022/04/11 09:25:22;;;;;;;7.97;2.20;;;21.80;45.90;;;;;;4928215;29;20035;-79
2022/04/11 09:28:03;;;;;;;7.63;2.38;;;21.80;45.90;;;;;;4932966;29;20040;-78
2022/04/11 09:30:32;;;;;;;7.47;2.03;;;21.80;45.90;;;;;;4923725;29;20027;-78
2022/04/11 09:32:58;;;;;;;8.88;2.10;;;21.80;45.90;;;;;;4939282;29;20069;-79
2022/04/11 09:35:32;;;;;;;10.50;2.40;;;21.80;45.90;;;;;;4936589;29;20032;-81
2022/04/11 09:38:13;;;;;;;5.07;1.95;;;21.80;46.30;;;;;;4932052;29;20508;-79
2022/04/11 09:40:40;;;;;;;5.25;1.90;;;21.80;45.90;;;;;;4938216;29;20028;-79
2022/04/11 09:43:07;;;;;;;5.90;2.20;;;21.80;45.90;;;;;;4939271;29;20288;-77
2022/04/11 09:45:32;;;;;;;5.63;2.10;;;21.80;45.80;;;;;;4934807;28;20031;-77
2022/04/11 09:48:03;;;;;;;6.20;1.98;;;21.80;45.90;;;;;;4937382;29;20380;-78
2022/04/11 09:50:31;;;;;;;5.55;1.80;;;21.80;45.80;;;;;;4937381;29;20074;-75
2022/04/11 09:53:13;;;;;;;8.48;2.30;;;21.80;46.00;;;;;;4934638;29;20086;-68
2022/04/11 09:55:40;;;;;;;44.15;31.42;;;21.80;46.00;;;;;;4934760;29;20079;-69
2022/04/11 09:58:07;;;;;;;19.90;9.88;;;21.70;43.60;;;;;;4928070;29;20026;-76
2022/04/11 10:00:35;;;;;;;18.83;9.27;;;21.60;44.60;;;;;;4935939;29;20542;-76
2022/04/11 10:03:01;;;;;;;20.15;12.55;;;21.60;45.30;;;;;;4939136;29;20476;-77
2022/04/11 10:05:27;;;;;;;29.95;18.40;;;21.60;44.60;;;;;;4923133;29;20118;-78
2022/04/11 10:07:54;;;;;;;31.75;21.15;;;21.60;43.20;;;;;;4941794;29;20123;-77
2022/04/11 10:10:24;;;;;;;34.00;23.60;;;21.60;43.00;;;;;;4932272;29;20043;-77
2022/04/11 10:12:52;;;;;;;35.90;23.50;;;21.60;43.30;;;;;;4931519;29;20029;-77
2022/04/11 10:15:18;;;;;;;30.70;22.17;;;21.60;43.60;;;;;;4937386;29;20031;-77
2022/04/11 10:17:45;;;;;;;37.20;23.00;;;21.60;43.80;;;;;;4937599;29;20075;-77
2022/04/11 10:20:11;;;;;;;34.30;21.88;;;21.60;44.10;;;;;;4943677;28;20058;-77
2022/04/11 10:23:00;;;;;;;29.23;21.55;;;21.70;44.30;;;;;;4943723;28;20068;-76
2022/04/11 10:25:27;;;;;;;31.80;21.73;;;21.70;44.50;;;;;;4936439;29;20028;-76
2022/04/11 10:28:14;;;;;;;29.75;21.77;;;21.70;44.50;;;;;;4940628;29;20447;-77
2022/04/11 10:30:40;;;;;;;31.10;20.90;;;21.70;44.90;;;;;;4940099;28;20036;-76
2022/04/11 10:33:06;;;;;;;29.13;19.88;;;21.70;44.90;;;;;;4945086;29;20110;-76
2022/04/11 10:35:40;;;;;;;30.63;19.65;;;21.70;45.10;;;;;;4949135;28;20636;-76
2022/04/11 10:38:08;;;;;;;29.35;19.70;;;21.70;45.20;;;;;;4935283;29;20035;-77
2022/04/11 10:40:37;;;;;;;25.92;19.25;;;21.70;45.30;;;;;;4934936;29;20036;-77
2022/04/11 10:43:04;;;;;;;32.03;19.80;;;21.70;45.40;;;;;;4945881;29;20046;-77
2022/04/11 10:45:36;;;;;;;28.73;18.50;;;21.70;45.50;;;;;;4942788;29;20039;-77
2022/04/11 10:48:03;;;;;;;27.75;18.98;;;21.70;45.50;;;;;;4946368;29;20072;-77
2022/04/11 10:50:37;;;;;;;27.10;18.75;;;21.70;45.60;;;;;;4952623;28;20031;-77
2022/04/11 10:53:24;;;;;;;26.50;18.38;;;21.70;45.70;;;;;;4944795;29;20022;-76
2022/04/11 10:55:54;;;;;;;27.08;17.65;;;21.70;45.80;;;;;;4945759;28;20031;-75
2022/04/11 10:58:40;;;;;;;26.60;17.55;;;21.80;46.10;;;;;;4943033;29;20047;-76
2022/04/11 11:01:08;;;;;;;39.08;18.20;;;21.80;46.20;;;;;;4927010;29;20027;-77
2022/04/11 11:03:34;;;;;;;29.00;17.95;;;21.80;46.00;;;;;;4948050;28;20031;-78
2022/04/11 11:06:20;;;;;;;28.80;18.52;;;21.80;46.00;;;;;;4948510;28;20046;-77
2022/04/11 11:08:46;;;;;;;25.55;17.80;;;21.80;46.10;;;;;;4937219;29;20420;-77
2022/04/11 11:11:26;;;;;;;31.10;17.35;;;21.80;46.20;;;;;;4946999;28;20071;-79
2022/04/11 11:13:54;;;;;;;31.77;16.92;;;21.70;46.40;;;;;;4938750;29;20385;-78
2022/04/11 11:16:20;;;;;;;27.80;17.60;;;21.70;46.50;;;;;;4942885;29;20032;-78
2022/04/11 11:18:49;;;;;;;23.67;17.08;;;21.70;46.60;;;;;;4930255;29;20396;-76
2022/04/11 11:21:27;;;;;;;23.63;16.70;;;21.70;46.60;;;;;;4942607;29;20504;-77
2022/04/11 11:24:02;;;;;;;25.33;15.98;;;21.70;46.80;;;;;;4942404;29;20079;-78
2022/04/11 11:26:48;;;;;;;24.95;16.40;;;21.70;46.90;;;;;;4945200;29;20095;-75
2022/04/11 11:29:29;;;;;;;27.13;16.42;;;21.70;46.90;;;;;;4937623;29;20142;-77
2022/04/11 11:32:00;;;;;;;29.98;16.17;;;21.70;47.00;;;;;;4946675;29;20074;-75
2022/04/11 11:34:29;;;;;;;24.33;16.15;;;21.70;47.10;;;;;;4940293;29;20023;-77
2022/04/11 11:37:02;;;;;;;26.77;16.48;;;21.70;47.30;;;;;;4938343;29;20477;-77
2022/04/11 11:39:29;;;;;;;26.88;15.85;;;21.70;47.30;;;;;;4943014;29;20027;-77
2022/04/11 11:42:05;;;;;;;25.88;16.35;;;21.70;47.30;;;;;;4941579;29;20071;-76
2022/04/11 11:44:32;;;;;;;24.70;15.82;;;21.70;47.40;;;;;;4947341;28;20110;-77
2022/04/11 11:47:02;;;;;;;26.10;16.00;;;21.70;47.40;;;;;;4946826;28;20190;-77
2022/04/11 11:49:40;;;;;;;26.55;14.68;;;21.70;47.50;;;;;;4933337;29;20041;-78
2022/04/11 11:52:22;;;;;;;28.98;15.35;;;21.70;47.50;;;;;;4924330;29;20034;-78
2022/04/11 11:54:50;;;;;;;24.33;14.93;;;21.70;47.50;;;;;;4945643;29;20027;-78
2022/04/11 11:57:27;;;;;;;22.15;13.90;;;21.70;47.50;;;;;;4945417;29;20023;-78
2022/04/11 12:00:03;;;;;;;24.33;14.95;;;21.70;47.60;;;;;;4943725;29;20383;-74
2022/04/11 12:05:24;;;;;;;21.27;14.95;;;21.70;47.70;;;;;;4935516;29;20032;-77
2022/04/11 12:08:13;;;;;;;22.08;13.73;;;21.60;47.60;;;;;;4927835;29;20078;-79
2022/04/11 12:10:40;;;;;;;25.83;14.60;;;21.70;47.50;;;;;;4900913;29;20024;-79
2022/04/11 12:13:06;;;;;;;20.95;13.57;;;21.70;47.60;;;;;;4939404;29;20105;-80
2022/04/11 12:15:34;;;;;;;22.60;14.50;;;21.70;47.60;;;;;;4923386;29;20204;-78
2022/04/11 12:18:09;;;;;;;19.30;14.02;;;21.60;47.60;;;;;;4920879;29;20031;-78
2022/04/11 12:20:35;;;;;;;23.85;13.82;;;21.60;48.30;;;;;;4937472;29;20031;-78
2022/04/11 12:23:11;;;;;;;21.83;14.25;;;21.60;47.70;;;;;;4943330;29;20031;-79
2022/04/11 12:25:57;;;;;;;20.95;13.38;;;21.60;47.70;;;;;;4940179;29;20484;-79
2022/04/11 12:28:26;;;;;;;21.90;13.50;;;21.60;47.70;;;;;;4937789;29;20048;-78
2022/04/11 12:31:03;;;;;;;20.45;13.88;;;21.60;47.70;;;;;;4940947;29;20028;-76
2022/04/11 12:33:39;;;;;;;20.52;13.57;;;21.60;47.70;;;;;;4944778;28;20027;-77
2022/04/11 12:36:28;;;;;;;21.73;13.52;;;21.60;47.70;;;;;;4939389;28;20448;-78
2022/04/11 12:39:12;;;;;;;20.35;12.80;;;21.60;47.70;;;;;;4944660;29;20042;-77
2022/04/11 12:41:47;;;;;;;26.08;13.60;;;21.60;47.80;;;;;;4931404;28;20034;-78
2022/04/11 12:44:17;;;;;;;21.85;13.02;;;21.60;47.80;;;;;;4936030;29;20030;-78
2022/04/11 12:46:56;;;;;;;19.60;12.63;;;21.60;48.00;;;;;;4939197;29;20516;-77
2022/04/11 12:49:23;;;;;;;20.10;12.43;;;21.60;47.90;;;;;;4939859;29;20175;-78
2022/04/11 12:52:02;;;;;;;19.63;11.60;;;21.60;47.80;;;;;;4945128;29;20035;-78
2022/04/11 12:54:38;;;;;;;17.00;12.07;;;21.60;47.80;;;;;;4945985;28;20117;-77
2022/04/11 12:57:06;;;;;;;19.35;12.90;;;21.60;47.80;;;;;;4944186;28;20024;-78